Time;durP1;ratioP1;P1;durP2;ratioP2;P2;SDS_P1;SDS_P2;PMS_P1;PMS_P2;Temp;Humidity;BMP_temperature;BMP_pressure;BME280_temperature;BME280_humidity;BME280_pressure;Samples;Min_cycle;Max_cycle;Signal;HPM_P1;HPM_P2
2022/10/02 00:01:17;;;;;;;14.45;2.65;;;;;;;11.79;69.49;99917.84;10421732;28;20067;-77
2022/10/02 00:06:22;;;;;;;18.15;3.10;;;;;;;11.78;69.54;99917.94;10399791;28;20053;-79
2022/10/02 00:11:31;;;;;;;14.73;3.42;;;;;;;11.74;70.09;99926.94;10419495;28;20067;-79
2022/10/02 00:16:38;;;;;;;15.20;3.20;;;;;;;11.83;69.71;99928.97;10417034;28;20507;-79
2022/10/02 00:22:00;;;;;;;16.98;3.05;;;;;;;11.80;69.88;99927.41;10417504;28;20069;-79
2022/10/02 00:27:17;;;;;;;19.42;3.45;;;;;;;11.84;69.92;99928.03;10416875;28;20517;-79
2022/10/02 00:32:36;;;;;;;16.73;3.17;;;;;;;11.88;70.13;99946.09;10417755;28;20056;-79
2022/10/02 00:37:57;;;;;;;22.02;3.30;;;;;;;12.05;69.57;99932.69;10402496;28;20063;-79
2022/10/02 00:43:18;;;;;;;16.50;3.00;;;;;;;11.99;69.79;99942.75;10400030;28;20057;-79
2022/10/02 00:48:36;;;;;;;15.93;3.20;;;;;;;12.06;69.56;99933.56;10418239;28;20045;-79
2022/10/02 00:54:15;;;;;;;15.98;3.22;;;;;;;12.11;69.71;99931.44;10416731;28;20053;-79
2022/10/02 00:59:44;;;;;;;16.27;2.83;;;;;;;12.26;69.02;99924.34;10399717;28;20049;-79
2022/10/02 01:04:46;;;;;;;13.00;2.80;;;;;;;12.34;68.83;99927.34;10419218;28;20053;-79
2022/10/02 01:09:48;;;;;;;22.50;3.35;;;;;;;12.32;69.12;99935.31;10399149;28;20049;-78
2022/10/02 01:14:50;;;;;;;21.58;3.63;;;;;;;12.38;68.76;99934.91;10401144;28;20053;-79
2022/10/02 01:19:52;;;;;;;17.02;3.13;;;;;;;12.39;68.60;99943.63;10412609;28;20111;-79
2022/10/02 01:24:59;;;;;;;19.58;3.47;;;;;;;12.37;68.82;99956.00;10397229;28;20045;-79
2022/10/02 01:30:06;;;;;;;19.58;3.00;;;;;;;12.38;68.76;99952.41;10397306;28;20060;-80
2022/10/02 01:35:08;;;;;;;18.52;3.03;;;;;;;12.47;68.49;99951.81;10398861;28;20049;-80
2022/10/02 01:40:26;;;;;;;18.00;3.63;;;;;;;12.57;68.24;99956.34;10398211;28;20050;-79
2022/10/02 01:45:47;;;;;;;17.85;3.05;;;;;;;12.63;67.99;99961.19;10398542;28;20049;-79
2022/10/02 01:51:00;;;;;;;;;;;;;;;12.31;68.96;99959.88;10411603;28;20853;-79
2022/10/02 01:56:10;;;;;;;16.48;3.60;;;;;;;12.66;68.35;99962.75;10416706;28;19941;-80
2022/10/02 02:01:29;;;;;;;16.92;3.05;;;;;;;12.72;67.91;99963.16;10398712;28;20495;-79
2022/10/02 02:06:40;;;;;;;18.00;3.40;;;;;;;12.83;67.48;99967.69;10397201;28;20049;-79
2022/10/02 02:12:07;;;;;;;17.80;2.95;;;;;;;12.86;67.56;99955.19;10406418;28;20060;-80
2022/10/02 02:17:25;;;;;;;20.10;3.47;;;;;;;12.89;67.33;99952.38;10395336;28;20051;-80
2022/10/02 02:22:30;;;;;;;24.73;3.70;;;;;;;12.98;67.02;99961.41;10395085;28;20049;-80
2022/10/02 02:27:40;;;;;;;17.25;3.45;;;;;;;13.03;67.18;99959.28;10413312;28;20053;-79
2022/10/02 02:32:50;;;;;;;18.83;3.72;;;;;;;13.03;67.17;99969.78;10414061;28;20072;-80
2022/10/02 02:37:55;;;;;;;21.37;3.13;;;;;;;13.02;67.02;99960.22;10413291;28;20053;-79
2022/10/02 02:43:22;;;;;;;17.23;3.10;;;;;;;12.99;66.96;99957.81;10395263;28;20063;-79
2022/10/02 02:48:31;;;;;;;21.48;3.65;;;;;;;12.95;67.11;99961.59;10413710;28;20049;-79
2022/10/02 02:53:50;;;;;;;18.20;2.95;;;;;;;12.91;67.04;99963.59;10413230;28;20517;-80
2022/10/02 02:59:11;;;;;;;26.80;3.88;;;;;;;12.92;67.07;99954.75;10402086;28;20140;-80
2022/10/02 03:04:13;;;;;;;22.60;3.58;;;;;;;12.93;67.31;99927.59;10420772;28;20114;-79
2022/10/02 03:09:18;;;;;;;23.23;3.78;;;;;;;12.94;67.06;99931.06;10402871;28;20060;-80
2022/10/02 03:14:42;;;;;;;23.98;3.55;;;;;;;12.96;67.17;99929.16;10403493;28;20052;-80
2022/10/02 03:19:55;;;;;;;21.05;3.42;;;;;;;12.90;67.50;99946.16;10404699;28;20063;-80
2022/10/02 03:25:30;;;;;;;19.17;3.90;;;;;;;12.93;67.15;99956.44;10417122;28;20053;-79
2022/10/02 03:30:35;;;;;;;18.95;3.35;;;;;;;12.92;67.35;99956.56;10362071;28;20147;-79
2022/10/02 03:35:37;;;;;;;26.10;3.80;;;;;;;12.96;67.54;99963.28;10402755;28;20049;-79
2022/10/02 03:40:39;;;;;;;17.52;3.53;;;;;;;12.99;67.21;99952.56;10415091;28;20056;-79
2022/10/02 03:45:41;;;;;;;22.17;3.22;;;;;;;13.04;66.93;99947.00;10396113;28;20052;-79
2022/10/02 03:50:58;;;;;;;22.15;3.47;;;;;;;13.02;66.88;99956.75;10401763;28;20052;-78
2022/10/02 03:56:06;;;;;;;17.33;3.67;;;;;;;13.08;66.79;99951.09;10398918;28;20052;-79
2022/10/02 04:01:19;;;;;;;15.57;3.05;;;;;;;13.02;67.00;99952.34;10419300;28;20525;-79
2022/10/02 04:06:42;;;;;;;23.13;3.72;;;;;;;13.01;67.05;99952.44;10400337;28;20049;-79
2022/10/02 04:11:53;;;;;;;18.90;3.35;;;;;;;13.02;67.32;99955.00;10417668;28;20064;-79
2022/10/02 04:17:19;;;;;;;23.88;3.90;;;;;;;13.01;67.27;99949.81;10416376;28;20577;-79
2022/10/02 04:22:41;;;;;;;18.08;3.25;;;;;;;12.93;67.38;99948.59;10416348;28;20053;-79
2022/10/02 04:27:50;;;;;;;21.55;3.40;;;;;;;12.98;67.86;99946.47;10400390;28;20826;-79
2022/10/02 04:32:54;;;;;;;22.05;3.47;;;;;;;13.00;67.62;99956.03;10415658;28;20561;-79
2022/10/02 04:38:02;;;;;;;21.77;3.90;;;;;;;12.99;67.54;99949.94;10416838;28;20055;-78
2022/10/02 04:43:06;;;;;;;18.13;3.38;;;;;;;13.04;67.64;99949.63;10400009;28;20502;-79
2022/10/02 04:48:35;;;;;;;17.73;3.30;;;;;;;12.93;67.69;99945.97;10415722;28;20049;-79
2022/10/02 04:54:04;;;;;;;21.63;3.20;;;;;;;12.95;67.38;99943.22;10412452;28;20128;-78
2022/10/02 04:59:19;;;;;;;20.45;3.83;;;;;;;13.01;67.51;99944.56;10400038;28;20060;-79
2022/10/02 05:04:47;;;;;;;18.05;3.65;;;;;;;13.00;67.32;99946.38;10418835;28;20057;-79
2022/10/02 05:10:06;;;;;;;16.88;3.30;;;;;;;13.00;67.63;99950.78;10398413;28;20053;-79
2022/10/02 05:15:39;;;;;;;19.20;3.35;;;;;;;13.01;67.45;99949.81;10399982;28;20044;-79
2022/10/02 05:20:59;;;;;;;17.95;3.30;;;;;;;13.04;67.75;99955.72;10399490;28;20974;-79
2022/10/02 05:26:16;;;;;;;22.48;3.50;;;;;;;13.07;67.60;99970.44;10415341;28;20044;-79
2022/10/02 05:31:33;;;;;;;18.05;3.45;;;;;;;13.07;67.81;99965.19;10417008;28;20060;-79
2022/10/02 05:36:42;;;;;;;17.35;3.40;;;;;;;13.14;67.38;99971.66;10415424;28;20155;-79
2022/10/02 05:42:05;;;;;;;21.65;3.47;;;;;;;13.19;67.39;99980.06;10417198;28;20057;-79
2022/10/02 05:47:12;;;;;;;18.40;3.50;;;;;;;13.22;67.06;99985.09;10414089;28;20048;-79
2022/10/02 05:52:22;;;;;;;16.52;3.28;;;;;;;13.24;67.08;99973.53;10397194;28;20053;-79
2022/10/02 05:57:31;;;;;;;17.93;3.63;;;;;;;13.30;67.13;99969.63;10396916;28;20498;-79
2022/10/02 06:02:39;;;;;;;17.58;3.40;;;;;;;13.31;67.10;99964.28;10413024;28;20060;-79
2022/10/02 06:07:46;;;;;;;13.05;2.90;;;;;;;13.35;67.12;99970.19;10414156;28;20052;-79
2022/10/02 06:12:59;;;;;;;19.45;2.90;;;;;;;13.39;67.44;99974.25;10415647;28;20053;-79
2022/10/02 06:18:08;;;;;;;16.85;3.50;;;;;;;13.43;67.27;99981.81;10413618;28;20045;-80
2022/10/02 06:23:21;;;;;;;22.25;3.38;;;;;;;13.35;67.79;99991.19;10394329;28;20056;-80
2022/10/02 06:28:26;;;;;;;21.02;3.40;;;;;;;13.39;68.21;99993.47;10397887;28;20053;-80
2022/10/02 06:33:31;;;;;;;26.38;4.28;;;;;;;13.30;68.41;99993.28;10418406;28;20064;-79
2022/10/02 06:38:50;;;;;;;17.65;3.35;;;;;;;13.31;68.74;99990.53;10405832;28;20049;-79
2022/10/02 06:44:10;;;;;;;17.93;3.50;;;;;;;13.36;68.82;99998.94;10409159;28;20057;-79
2022/10/02 06:49:50;;;;;;;15.23;3.10;;;;;;;13.36;68.56;99995.47;10411353;28;20041;-79
2022/10/02 06:55:15;;;;;;;18.65;3.38;;;;;;;13.44;68.60;100001.06;10407609;28;20933;-79
2022/10/02 07:00:20;;;;;;;18.52;3.25;;;;;;;13.53;68.49;99995.19;10428199;28;20061;-79
2022/10/02 07:05:49;;;;;;;15.15;3.25;;;;;;;13.45;68.79;99994.88;10425049;28;20499;-79
2022/10/02 07:10:57;;;;;;;14.35;2.97;;;;;;;13.50;69.04;100003.25;10426992;28;20059;-79
2022/10/02 07:16:08;;;;;;;14.25;2.80;;;;;;;13.66;68.22;99998.59;10423981;28;20392;-80
2022/10/02 07:21:29;;;;;;;13.82;3.10;;;;;;;13.62;68.57;100003.25;10426188;28;20049;-79
2022/10/02 07:26:51;;;;;;;;;;;;;;;13.55;69.15;100009.91;10410584;28;20498;-79
2022/10/02 07:32:11;;;;;;;9.32;2.63;;;;;;;13.91;67.98;100010.81;10405101;28;19928;-79
2022/10/02 07:37:37;;;;;;;10.63;2.33;;;;;;;14.01;68.02;100015.31;10425438;28;20057;-79
2022/10/02 07:43:00;;;;;;;10.18;2.00;;;;;;;14.02;67.73;100024.91;10423037;28;20056;-79
2022/10/02 07:48:22;;;;;;;7.40;2.05;;;;;;;14.01;67.79;100022.34;10403448;28;20384;-80
2022/10/02 07:53:47;;;;;;;9.00;2.10;;;;;;;13.95;68.07;100038.56;10416537;28;20150;-79
2022/10/02 07:59:07;;;;;;;8.40;1.77;;;;;;;13.84;68.46;100047.22;10401966;28;20049;-79
2022/10/02 08:04:17;;;;;;;5.95;1.70;;;;;;;13.83;68.65;100049.97;10418791;28;20926;-79
2022/10/02 08:09:32;;;;;;;6.82;1.80;;;;;;;14.09;68.34;100041.88;10416599;28;20045;-79
2022/10/02 08:14:41;;;;;;;5.95;1.63;;;;;;;14.31;67.58;100042.00;10417069;28;20061;-79
2022/10/02 08:19:47;;;;;;;6.00;1.75;;;;;;;14.31;67.68;100042.00;10418405;28;20055;-79
2022/10/02 08:24:53;;;;;;;6.03;1.60;;;;;;;14.24;67.58;100042.56;10417420;28;20049;-79
2022/10/02 08:30:02;;;;;;;5.05;1.52;;;;;;;14.23;67.80;100047.00;10416314;28;20057;-79
2022/10/02 08:35:13;;;;;;;5.07;1.50;;;;;;;14.39;67.51;100054.63;10401026;28;20060;-79
2022/10/02 08:40:33;;;;;;;3.75;1.38;;;;;;;14.24;67.57;100050.47;10417503;28;20057;-79
2022/10/02 08:45:47;;;;;;;3.25;1.40;;;;;;;14.22;67.83;100044.47;10402175;28;20056;-79
2022/10/02 08:51:16;;;;;;;3.20;1.20;;;;;;;14.45;67.38;100052.34;10415607;28;20129;-79
2022/10/02 08:56:47;;;;;;;3.05;1.10;;;;;;;14.61;66.60;100043.38;10413407;28;20049;-79
2022/10/02 09:02:26;;;;;;;4.20;1.47;;;;;;;14.79;66.63;100048.09;10395507;28;20046;-80
2022/10/02 09:07:35;;;;;;;4.38;1.17;;;;;;;14.95;65.73;100053.03;10396869;28;20483;-79
2022/10/02 09:13:14;;;;;;;2.63;1.23;;;;;;;15.02;65.52;100059.53;10398582;28;20052;-79
2022/10/02 09:18:23;;;;;;;4.25;1.20;;;;;;;15.01;66.04;100056.06;10396420;28;20378;-79
2022/10/02 09:23:56;;;;;;;4.90;2.20;;;;;;;15.04;65.61;100037.38;10411466;28;20529;-79
2022/10/02 09:29:09;;;;;;;4.82;1.80;;;;;;;15.30;65.38;100043.28;10415338;28;20099;-79
2022/10/02 09:34:36;;;;;;;2.53;1.30;;;;;;;15.35;64.33;100035.84;10395717;28;20135;-79
2022/10/02 09:39:56;;;;;;;2.72;1.30;;;;;;;15.44;64.48;100037.78;10397398;28;20053;-81
2022/10/02 09:45:17;;;;;;;2.83;1.30;;;;;;;15.74;64.18;100032.75;10395804;28;20049;-78
2022/10/02 09:50:44;;;;;;;2.67;1.00;;;;;;;15.76;63.53;100025.56;10415862;28;20061;-77
2022/10/02 09:55:58;;;;;;;3.05;1.00;;;;;;;15.96;62.62;100027.44;10408462;28;20045;-78
2022/10/02 10:01:32;;;;;;;4.22;1.27;;;;;;;16.02;62.55;100031.38;10416825;28;20076;-78
2022/10/02 10:06:46;;;;;;;3.67;1.50;;;;;;;15.90;62.46;100038.47;10414002;28;20072;-78
2022/10/02 10:12:24;;;;;;;3.75;1.67;;;;;;;15.71;62.67;100026.91;10397917;28;20049;-78
2022/10/02 10:17:50;;;;;;;3.05;1.75;;;;;;;15.76;63.07;100019.44;10415418;28;20041;-78
2022/10/02 10:23:06;;;;;;;2.42;1.40;;;;;;;15.93;62.64;100032.13;10397476;28;20064;-78
2022/10/02 10:28:39;;;;;;;3.42;1.60;;;;;;;15.92;62.55;100041.84;10396199;28;20053;-78
2022/10/02 10:33:53;;;;;;;3.42;1.90;;;;;;;16.15;62.40;100035.56;10411828;28;20046;-77
2022/10/02 10:39:05;;;;;;;2.33;1.20;;;;;;;16.40;61.54;100058.16;10415587;28;20053;-77
2022/10/02 10:44:16;;;;;;;2.58;1.30;;;;;;;16.30;61.49;100057.22;10403611;28;20140;-77
2022/10/02 10:50:09;;;;;;;2.67;0.90;;;;;;;15.95;62.05;100069.78;10397053;28;20499;-77
2022/10/02 10:55:33;;;;;;;1.48;0.90;;;;;;;16.06;62.15;100078.50;10404879;28;20522;-78
2022/10/02 11:00:54;;;;;;;2.17;1.25;;;;;;;16.27;61.91;100070.66;10416022;28;20048;-78
2022/10/02 11:06:35;;;;;;;3.05;1.20;;;;;;;16.64;60.64;100087.84;10399631;28;20053;-78
2022/10/02 11:11:43;;;;;;;3.55;1.05;;;;;;;16.73;60.72;100087.09;10371141;28;20517;-78
2022/10/02 11:17:02;;;;;;;1.33;0.80;;;;;;;16.43;60.81;100086.97;10415144;28;20057;-77
2022/10/02 11:22:06;;;;;;;1.83;0.70;;;;;;;16.24;61.13;100095.50;10424118;28;20060;-78
2022/10/02 11:27:17;;;;;;;2.90;0.88;;;;;;;16.13;61.19;100095.53;10404629;28;20049;-77
2022/10/02 11:32:55;;;;;;;0.90;0.73;;;;;;;15.81;62.06;100099.88;10406086;28;20057;-77
2022/10/02 11:38:00;;;;;;;3.78;0.77;;;;;;;15.77;62.87;100094.97;10404971;28;20064;-78
2022/10/02 11:43:27;;;;;;;1.52;0.85;;;;;;;15.88;62.11;100106.34;10423402;28;20046;-78
2022/10/02 11:48:37;;;;;;;4.28;2.00;;;;;;;15.91;62.70;100106.13;10420591;28;20578;-78
2022/10/02 11:53:58;;;;;;;10.25;5.40;;;;;;;15.63;63.39;100111.88;10421832;28;20053;-78
2022/10/02 11:59:23;;;;;;;3.40;0.85;;;;;;;15.62;63.78;100114.59;10403107;28;20045;-78
2022/10/02 12:04:51;;;;;;;4.30;1.20;;;;;;;15.61;64.08;100112.94;10420285;28;20049;-78
2022/10/02 12:10:30;;;;;;;4.05;1.50;;;;;;;15.68;64.45;100106.22;10416433;28;20407;-78
2022/10/02 12:16:09;;;;;;;4.35;2.40;;;;;;;15.79;64.06;100109.72;10419194;28;20415;-78
2022/10/02 12:27:26;;;;;;;6.05;4.13;;;;;;;15.68;64.59;100095.69;10406224;28;20041;-77
2022/10/02 12:33:01;;;;;;;4.00;1.70;;;;;;;15.94;63.21;100097.94;10399808;28;20400;-78
2022/10/02 12:38:20;;;;;;;4.22;1.83;;;;;;;16.24;62.79;100089.41;10401538;28;20048;-78
2022/10/02 12:43:58;;;;;;;4.22;1.65;;;;;;;16.56;62.46;100089.44;10417408;28;20061;-78
2022/10/02 12:49:33;;;;;;;8.15;4.15;;;;;;;16.80;61.79;100093.53;10402135;28;20045;-78
2022/10/02 12:55:08;;;;;;;2.13;1.15;;;;;;;16.97;60.53;100100.06;10404792;28;20068;-78
2022/10/02 13:00:15;;;;;;;2.78;1.20;;;;;;;16.74;61.41;100101.97;10401155;28;20049;-78
2022/10/02 13:05:44;;;;;;;2.47;1.17;;;;;;;16.50;61.73;100096.06;10418264;28;20072;-78
2022/10/02 13:10:56;;;;;;;4.22;1.10;;;;;;;16.13;61.79;100103.44;10394565;28;20921;-77
2022/10/02 13:16:09;;;;;;;5.85;1.55;;;;;;;15.87;62.25;100109.09;10419011;28;20049;-78
2022/10/02 13:21:29;;;;;;;6.90;1.77;;;;;;;15.61;61.83;100111.16;10418328;28;20045;-77
2022/10/02 13:26:51;;;;;;;4.97;1.50;;;;;;;15.62;62.73;100123.38;10400945;28;20056;-78
2022/10/02 13:32:16;;;;;;;8.13;2.03;;;;;;;15.81;62.75;100118.34;10398516;28;20049;-78
2022/10/02 13:37:40;;;;;;;5.43;1.90;;;;;;;15.96;62.08;100121.56;10415597;28;20968;-77
2022/10/02 13:43:19;;;;;;;9.00;2.70;;;;;;;15.92;61.89;100120.97;10415244;28;20064;-77
2022/10/02 13:48:34;;;;;;;7.05;2.15;;;;;;;16.10;61.47;100100.22;10400748;28;20060;-77
2022/10/02 13:53:54;;;;;;;7.18;1.77;;;;;;;16.22;60.78;100101.88;10400723;28;20049;-78
2022/10/02 13:59:40;;;;;;;4.70;1.90;;;;;;;16.14;60.31;100110.38;10399814;28;20822;-78
2022/10/02 14:04:54;;;;;;;9.30;1.80;;;;;;;16.14;60.70;100117.50;10347867;28;20052;-78
2022/10/02 14:10:02;;;;;;;7.70;1.70;;;;;;;16.11;60.55;100115.06;10415595;28;20040;-77
2022/10/02 14:15:18;;;;;;;9.02;1.80;;;;;;;16.16;60.02;100119.03;10416253;28;20434;-78
2022/10/02 14:20:51;;;;;;;7.38;1.80;;;;;;;16.21;60.56;100113.38;10398853;28;20049;-77
2022/10/02 14:25:59;;;;;;;6.78;1.90;;;;;;;16.11;60.61;100115.94;10394707;28;20041;-78
2022/10/02 14:31:25;;;;;;;7.28;2.10;;;;;;;16.02;60.24;100126.34;10413759;28;20053;-78
2022/10/02 14:36:42;;;;;;;6.38;1.80;;;;;;;16.09;60.05;100127.56;10398508;28;20581;-77
2022/10/02 14:42:38;;;;;;;8.52;2.40;;;;;;;16.02;59.94;100129.84;10415034;28;20057;-77
2022/10/02 14:48:03;;;;;;;6.63;2.15;;;;;;;15.91;60.39;100143.03;10313360;28;20056;-77
2022/10/02 14:53:25;;;;;;;7.18;2.10;;;;;;;15.93;60.40;100132.38;10401985;28;20049;-78
2022/10/02 14:58:45;;;;;;;7.95;2.28;;;;;;;15.73;60.88;100148.91;10421558;28;20045;-78
2022/10/02 15:04:06;;;;;;;7.38;2.17;;;;;;;15.64;60.19;100150.44;10405546;28;20049;-76
2022/10/02 15:09:23;;;;;;;6.60;1.92;;;;;;;15.48;60.80;100149.91;10404507;28;20064;-77
2022/10/02 15:14:42;;;;;;;5.60;1.83;;;;;;;15.38;60.41;100143.66;10420392;28;20053;-77
2022/10/02 15:20:02;;;;;;;10.53;2.00;;;;;;;15.45;60.88;100144.88;10422558;28;20049;-77
2022/10/02 15:25:27;;;;;;;5.45;1.90;;;;;;;15.39;61.12;100142.69;10424055;28;20056;-77
2022/10/02 15:30:38;;;;;;;6.78;2.05;;;;;;;15.39;60.75;100147.97;10406642;28;20060;-77
2022/10/02 15:36:09;;;;;;;7.45;2.10;;;;;;;15.34;61.05;100163.31;10436423;28;20049;-77
2022/10/02 15:41:10;;;;;;;;;;;;;;;14.88;62.29;100165.06;10419890;28;20813;-77
2022/10/02 15:46:15;;;;;;;11.10;2.17;;;;;;;15.06;61.74;100172.44;10416034;28;19931;-77
2022/10/02 15:51:53;;;;;;;8.65;2.25;;;;;;;15.02;61.77;100176.25;10403954;28;20163;-77
2022/10/02 15:57:25;;;;;;;10.93;2.78;;;;;;;14.91;62.03;100194.66;10401859;28;20057;-77
2022/10/02 16:02:29;;;;;;;7.35;2.30;;;;;;;14.90;62.26;100192.13;10405794;28;20053;-77
2022/10/02 16:07:59;;;;;;;12.00;2.47;;;;;;;14.83;62.26;100197.00;10405267;28;20045;-77
2022/10/02 16:13:10;;;;;;;9.25;2.50;;;;;;;14.77;62.43;100213.25;10401097;28;20068;-77
2022/10/02 16:18:33;;;;;;;9.73;2.92;;;;;;;14.69;62.53;100212.13;10418344;28;20052;-77
2022/10/02 16:23:50;;;;;;;6.43;2.38;;;;;;;14.61;62.54;100210.03;10400173;28;20057;-77
2022/10/02 16:29:09;;;;;;;8.52;2.60;;;;;;;14.58;62.83;100207.63;10416763;28;20060;-77
2022/10/02 16:34:37;;;;;;;9.63;3.00;;;;;;;14.47;63.11;100216.25;10397619;28;20057;-77
2022/10/02 16:39:58;;;;;;;10.38;3.17;;;;;;;14.36;63.32;100226.69;10351378;28;20050;-77
2022/10/02 16:45:42;;;;;;;13.73;3.25;;;;;;;14.25;63.55;100236.28;10396646;28;20558;-77
2022/10/02 16:50:49;;;;;;;10.82;3.17;;;;;;;14.27;63.57;100239.63;10408747;28;20137;-77
2022/10/02 16:56:05;;;;;;;7.40;2.85;;;;;;;14.10;64.14;100237.38;10402214;28;20050;-77
2022/10/02 17:01:23;;;;;;;9.25;2.70;;;;;;;13.92;64.22;100247.38;10414917;28;20144;-77
2022/10/02 17:06:37;;;;;;;11.43;2.95;;;;;;;13.74;64.99;100259.09;10402039;28;20500;-77
2022/10/02 17:12:01;;;;;;;13.93;3.40;;;;;;;13.56;65.60;100270.84;10414540;28;20479;-77
2022/10/02 17:17:24;;;;;;;11.98;3.40;;;;;;;13.29;65.99;100286.63;10416432;28;20082;-77
2022/10/02 17:22:25;;;;;;;10.50;3.20;;;;;;;13.26;66.02;100283.34;10413889;28;20049;-77
2022/10/02 17:27:41;;;;;;;10.50;3.85;;;;;;;13.12;66.93;100293.91;10416574;28;20059;-77
2022/10/02 17:32:45;;;;;;;11.02;3.47;;;;;;;13.03;67.14;100305.03;10415705;28;20917;-77
2022/10/02 17:38:01;;;;;;;12.70;3.70;;;;;;;12.94;67.19;100327.44;10399992;28;20053;-77
2022/10/02 17:43:36;;;;;;;10.35;3.83;;;;;;;12.90;67.52;100329.41;10420188;28;20055;-78
2022/10/02 17:48:52;;;;;;;11.90;3.40;;;;;;;12.92;67.18;100345.09;10414072;28;20046;-78
2022/10/02 17:59:57;;;;;;;9.85;3.15;;;;;;;12.85;66.81;100365.63;10415630;28;20056;-77
2022/10/02 18:05:20;;;;;;;10.83;4.03;;;;;;;12.73;67.63;100376.88;10399533;28;20055;-78
2022/10/02 18:10:45;;;;;;;16.23;5.90;;;;;;;12.65;67.78;100383.53;10396340;28;20045;-78
2022/10/02 18:16:03;;;;;;;12.60;4.18;;;;;;;12.67;67.67;100398.25;10397507;28;20506;-80
2022/10/02 18:21:21;;;;;;;8.85;3.47;;;;;;;12.89;67.55;100414.38;10414613;28;21815;-80
2022/10/02 18:26:26;;;;;;;11.55;3.70;;;;;;;12.98;66.87;100425.22;10396220;28;20111;-80
2022/10/02 18:31:46;;;;;;;8.25;3.47;;;;;;;13.07;66.79;100435.19;10397356;28;20423;-80
2022/10/02 18:37:23;;;;;;;10.57;4.43;;;;;;;12.91;67.05;100436.13;10399685;28;20091;-80
2022/10/02 18:42:38;;;;;;;16.50;7.95;;;;;;;12.79;67.42;100439.50;10412772;28;20081;-82
2022/10/02 18:48:06;;;;;;;42.30;26.88;;;;;;;12.75;67.64;100439.75;10396042;28;20622;-80
2022/10/02 18:53:22;;;;;;;30.95;16.73;;;;;;;12.77;67.50;100441.38;10412900;28;20507;-80
2022/10/02 18:58:51;;;;;;;9.63;4.95;;;;;;;12.66;68.11;100435.91;10413491;28;20045;-80
2022/10/02 19:04:08;;;;;;;9.75;4.15;;;;;;;12.61;67.87;100437.13;10414332;28;20740;-80
2022/10/02 19:09:18;;;;;;;11.95;4.30;;;;;;;12.53;68.22;100447.25;10412344;28;20053;-80
2022/10/02 19:14:32;;;;;;;12.32;4.60;;;;;;;12.62;67.79;100452.78;10400811;28;20217;-80
2022/10/02 19:19:35;;;;;;;11.02;3.65;;;;;;;12.87;67.55;100466.13;10397194;28;20754;-80
2022/10/02 19:24:40;;;;;;;13.02;3.60;;;;;;;12.95;67.38;100479.63;10394330;28;20107;-80
2022/10/02 19:29:55;;;;;;;12.77;3.53;;;;;;;12.98;67.17;100485.63;10390698;28;20053;-80
2022/10/02 19:35:19;;;;;;;8.45;3.80;;;;;;;12.98;67.17;100489.09;10410029;28;20715;-81
2022/10/02 19:40:25;;;;;;;17.50;4.35;;;;;;;12.89;67.16;100490.50;10412193;28;20056;-80
2022/10/02 19:45:33;;;;;;;14.25;4.10;;;;;;;12.88;67.43;100503.72;10401964;28;20057;-80
2022/10/02 19:50:41;;;;;;;8.70;3.75;;;;;;;12.89;67.19;100506.25;10397325;28;20121;-80
2022/10/02 19:55:45;;;;;;;8.65;3.90;;;;;;;12.92;67.29;100516.53;10397954;28;20041;-80
2022/10/02 20:00:52;;;;;;;10.40;4.13;;;;;;;12.84;67.45;100520.59;10394077;28;20064;-80
2022/10/02 20:06:13;;;;;;;12.18;4.10;;;;;;;12.77;67.52;100517.47;10398987;28;20107;-80
2022/10/02 20:11:33;;;;;;;12.50;4.20;;;;;;;12.73;67.63;100529.09;10401282;28;20069;-82
2022/10/02 20:22:06;;;;;;;12.43;4.20;;;;;;;12.50;68.17;100545.34;10418117;28;20057;-82
2022/10/02 20:27:34;;;;;;;11.65;4.55;;;;;;;12.35;68.85;100548.00;10401695;28;20056;-83
2022/10/02 20:32:42;;;;;;;9.95;4.78;;;;;;;12.37;68.65;100554.00;10417055;28;20053;-83
2022/10/02 20:37:47;;;;;;;11.02;4.80;;;;;;;12.48;68.72;100559.47;10415517;28;20770;-82
2022/10/02 20:43:01;;;;;;;11.75;5.13;;;;;;;12.57;68.70;100565.03;10399261;28;20081;-83
2022/10/02 20:48:41;;;;;;;12.75;5.05;;;;;;;12.61;69.00;100569.19;10399109;28;20057;-82
2022/10/02 20:54:30;;;;;;;16.38;5.35;;;;;;;12.68;68.93;100577.56;10403700;28;20060;-82
2022/10/02 20:59:45;;;;;;;13.02;5.45;;;;;;;12.90;68.29;100578.81;10418521;28;20057;-82
2022/10/02 21:04:59;;;;;;;14.63;5.70;;;;;;;12.82;68.28;100580.22;10397887;28;21035;-82
2022/10/02 21:10:36;;;;;;;12.60;6.07;;;;;;;12.64;68.61;100582.09;10415775;28;20056;-82
2022/10/02 21:16:35;;;;;;;12.82;5.68;;;;;;;12.39;68.67;100586.25;10399277;28;20045;-80
2022/10/02 21:21:55;;;;;;;19.98;6.35;;;;;;;12.27;69.16;100590.38;10370799;28;20458;-79
2022/10/02 21:27:18;;;;;;;17.17;6.78;;;;;;;12.13;69.44;100604.25;10412769;28;20055;-80
2022/10/02 21:32:58;;;;;;;16.35;6.60;;;;;;;12.07;69.23;100622.06;10398223;28;20507;-80
2022/10/02 21:38:18;;;;;;;17.65;8.35;;;;;;;12.01;69.77;100638.16;10394365;28;20053;-80
2022/10/02 21:43:26;;;;;;;23.90;8.93;;;;;;;11.95;69.78;100641.09;10416566;28;20525;-80
2022/10/02 21:48:49;;;;;;;23.83;8.73;;;;;;;11.85;69.66;100646.00;10412453;28;20487;-80
2022/10/02 21:54:03;;;;;;;20.48;10.00;;;;;;;11.82;70.12;100654.03;10414073;28;20064;-80
2022/10/02 21:59:25;;;;;;;22.83;11.43;;;;;;;11.86;69.61;100666.06;10395419;28;20056;-79
2022/10/02 22:04:48;;;;;;;24.52;12.88;;;;;;;11.79;69.96;100666.44;10377284;28;20056;-80
2022/10/02 22:09:53;;;;;;;27.25;13.20;;;;;;;11.79;69.50;100666.44;10414947;28;20411;-80
2022/10/02 22:15:21;;;;;;;22.90;11.43;;;;;;;11.72;69.93;100675.56;10396550;28;20055;-80
2022/10/02 22:20:48;;;;;;;22.13;11.00;;;;;;;11.75;69.71;100672.78;10414160;28;20044;-79
2022/10/02 22:26:21;;;;;;;23.55;12.43;;;;;;;11.67;69.91;100688.06;10414053;28;20054;-80
2022/10/02 22:31:26;;;;;;;25.25;13.05;;;;;;;11.67;70.00;100690.66;10414378;28;20430;-81
2022/10/02 22:36:53;;;;;;;22.00;12.82;;;;;;;11.65;70.18;100687.28;10398390;28;20053;-80
2022/10/02 22:42:07;;;;;;;24.58;11.85;;;;;;;11.63;70.10;100686.50;10395875;28;20053;-80
2022/10/02 22:47:14;;;;;;;29.40;12.15;;;;;;;11.61;70.12;100694.47;10395430;28;20045;-80
2022/10/02 22:52:25;;;;;;;24.35;12.00;;;;;;;11.59;70.18;100713.81;10398412;28;20076;-79
2022/10/02 22:57:50;;;;;;;23.83;10.50;;;;;;;11.46;70.03;100726.66;10410877;28;20052;-80
2022/10/02 23:03:18;;;;;;;24.60;11.70;;;;;;;11.38;70.29;100733.25;10397908;28;20057;-80
2022/10/02 23:08:56;;;;;;;19.00;10.52;;;;;;;11.27;70.39;100750.31;10395490;28;20062;-80
2022/10/02 23:14:04;;;;;;;25.35;11.48;;;;;;;11.34;70.28;100743.00;10416413;28;20053;-80
2022/10/02 23:19:13;;;;;;;24.13;11.35;;;;;;;11.30;70.07;100741.47;10418536;28;21108;-80
2022/10/02 23:24:40;;;;;;;22.98;11.60;;;;;;;11.33;70.30;100749.19;10402107;28;20053;-80
2022/10/02 23:30:06;;;;;;;21.92;11.85;;;;;;;11.33;69.98;100749.19;10401923;28;20144;-80
2022/10/02 23:35:25;;;;;;;24.52;11.10;;;;;;;11.22;70.04;100754.94;10398861;28;20064;-80
2022/10/02 23:42:01;;;;;;;21.40;10.80;;;;;;;11.25;69.76;100752.16;10401713;28;20051;-80
2022/10/02 23:47:03;;;;;;;24.17;10.95;;;;;;;11.14;70.13;100764.94;10404506;28;20173;-80
2022/10/02 23:52:41;;;;;;;23.25;11.50;;;;;;;11.06;69.98;100758.38;10421527;28;20049;-80
2022/10/02 23:57:58;;;;;;;20.75;10.77;;;;;;;11.07;69.93;100767.94;10399019;28;20049;-80
